O61 weather

Cameron Park Airport
Cameron Park, California, United States

Public forecast

Using degrees Fahrenheit for public forecast. Weather courtesy of forecast.io.

METAR (pilot weather report)

Closest report is Placerville Airport, 11.3 nm (20.9 km) ENE. Retrieved 2019/06/20 23:15 UTC (0 seconds ago):

KPVF 202315Z AUTO 29005KT 10SM CLR 25/12 A2990 RMK AO1

TAF (pilot weather forecast)

Closest forecast is Sacramento Mather Airport, 16.5 nm (30.6 km) WSW. Retrieved 2019/06/20 18:36 UTC (5 hours ago):

TAF KMHR 201734Z 2018/2118 22009KT P6SM SKC FM210500 16007KT P6SM SKC FM211100 33008KT P6SM SKC